sensor_id;sensor_type;location;lat;lon;timestamp;temperature;humidity
28632;DHT22;15818;45.534;5.292;2022-10-13T00:01:26;13.10;99.90
28632;DHT22;15818;45.534;5.292;2022-10-13T00:03:52;12.90;99.90
28632;DHT22;15818;45.534;5.292;2022-10-13T00:06:20;12.80;99.90
28632;DHT22;15818;45.534;5.292;2022-10-13T00:08:47;12.90;99.90
28632;DHT22;15818;45.534;5.292;2022-10-13T00:11:18;12.90;99.90
28632;DHT22;15818;45.534;5.292;2022-10-13T00:13:45;12.80;99.90
28632;DHT22;15818;45.534;5.292;2022-10-13T00:16:13;12.80;99.90
28632;DHT22;15818;45.534;5.292;2022-10-13T00:18:39;12.80;99.90
28632;DHT22;15818;45.534;5.292;2022-10-13T00:21:06;12.80;99.90
28632;DHT22;15818;45.534;5.292;2022-10-13T00:23:33;12.70;99.90
28632;DHT22;15818;45.534;5.292;2022-10-13T00:26:05;12.80;99.90
28632;DHT22;15818;45.534;5.292;2022-10-13T00:28:31;12.90;99.90
28632;DHT22;15818;45.534;5.292;2022-10-13T00:30:57;13.00;99.90
28632;DHT22;15818;45.534;5.292;2022-10-13T00:33:23;13.00;99.90
28632;DHT22;15818;45.534;5.292;2022-10-13T00:35:48;12.90;99.90
28632;DHT22;15818;45.534;5.292;2022-10-13T00:38:17;12.80;99.90
28632;DHT22;15818;45.534;5.292;2022-10-13T00:40:51;12.80;99.90
28632;DHT22;15818;45.534;5.292;2022-10-13T00:43:23;12.70;99.90
28632;DHT22;15818;45.534;5.292;2022-10-13T00:45:51;12.60;99.90
28632;DHT22;15818;45.534;5.292;2022-10-13T00:48:26;12.60;99.90
28632;DHT22;15818;45.534;5.292;2022-10-13T00:50:52;12.70;99.90
28632;DHT22;15818;45.534;5.292;2022-10-13T00:53:19;12.70;99.90
28632;DHT22;15818;45.534;5.292;2022-10-13T00:55:46;12.60;99.90
28632;DHT22;15818;45.534;5.292;2022-10-13T00:58:14;12.40;99.90
28632;DHT22;15818;45.534;5.292;2022-10-13T01:00:50;12.40;99.90
28632;DHT22;15818;45.534;5.292;2022-10-13T01:03:18;12.40;99.90
28632;DHT22;15818;45.534;5.292;2022-10-13T01:05:44;12.40;99.90
28632;DHT22;15818;45.534;5.292;2022-10-13T01:08:11;12.40;99.90
28632;DHT22;15818;45.534;5.292;2022-10-13T01:25:37;12.10;99.90
28632;DHT22;15818;45.534;5.292;2022-10-13T01:28:15;12.30;99.90
28632;DHT22;15818;45.534;5.292;2022-10-13T01:30:57;12.40;99.90
28632;DHT22;15818;45.534;5.292;2022-10-13T01:36:52;12.60;99.90
28632;DHT22;15818;45.534;5.292;2022-10-13T01:42:24;12.50;99.90
28632;DHT22;15818;45.534;5.292;2022-10-13T01:44:57;12.60;99.90
28632;DHT22;15818;45.534;5.292;2022-10-13T01:47:25;12.50;99.90
28632;DHT22;15818;45.534;5.292;2022-10-13T01:49:52;12.50;99.90
28632;DHT22;15818;45.534;5.292;2022-10-13T01:52:21;12.50;99.90
28632;DHT22;15818;45.534;5.292;2022-10-13T01:54:52;12.50;99.90
28632;DHT22;15818;45.534;5.292;2022-10-13T01:57:39;12.40;99.90
28632;DHT22;15818;45.534;5.292;2022-10-13T02:00:11;12.40;99.90
28632;DHT22;15818;45.534;5.292;2022-10-13T02:06:35;12.60;99.90
28632;DHT22;15818;45.534;5.292;2022-10-13T02:09:13;12.80;99.90
28632;DHT22;15818;45.534;5.292;2022-10-13T02:11:48;12.70;99.90
28632;DHT22;15818;45.534;5.292;2022-10-13T02:14:20;12.60;99.90
28632;DHT22;15818;45.534;5.292;2022-10-13T02:16:48;12.60;99.90
28632;DHT22;15818;45.534;5.292;2022-10-13T02:19:16;12.60;99.90
28632;DHT22;15818;45.534;5.292;2022-10-13T02:21:43;12.60;99.90
28632;DHT22;15818;45.534;5.292;2022-10-13T02:24:10;12.60;99.90
28632;DHT22;15818;45.534;5.292;2022-10-13T02:26:37;12.60;99.90
28632;DHT22;15818;45.534;5.292;2022-10-13T02:29:13;12.50;99.90
28632;DHT22;15818;45.534;5.292;2022-10-13T02:31:39;12.20;99.90
28632;DHT22;15818;45.534;5.292;2022-10-13T02:34:06;12.10;99.90
28632;DHT22;15818;45.534;5.292;2022-10-13T02:36:32;12.20;99.90
28632;DHT22;15818;45.534;5.292;2022-10-13T02:38:58;12.30;99.90
28632;DHT22;15818;45.534;5.292;2022-10-13T02:41:24;12.50;99.90
28632;DHT22;15818;45.534;5.292;2022-10-13T02:43:49;12.50;99.90
28632;DHT22;15818;45.534;5.292;2022-10-13T02:46:15;12.50;99.90
28632;DHT22;15818;45.534;5.292;2022-10-13T02:48:40;12.70;99.90
28632;DHT22;15818;45.534;5.292;2022-10-13T02:51:06;12.50;99.90
28632;DHT22;15818;45.534;5.292;2022-10-13T02:53:32;12.30;99.90
28632;DHT22;15818;45.534;5.292;2022-10-13T02:55:57;12.30;99.90
28632;DHT22;15818;45.534;5.292;2022-10-13T02:58:23;12.30;99.90
28632;DHT22;15818;45.534;5.292;2022-10-13T03:00:49;12.30;99.90
28632;DHT22;15818;45.534;5.292;2022-10-13T03:03:15;12.40;99.90
28632;DHT22;15818;45.534;5.292;2022-10-13T03:05:40;12.40;99.90
28632;DHT22;15818;45.534;5.292;2022-10-13T03:08:06;12.50;99.90
28632;DHT22;15818;45.534;5.292;2022-10-13T03:10:32;12.60;99.90
28632;DHT22;15818;45.534;5.292;2022-10-13T03:12:58;12.70;99.90
28632;DHT22;15818;45.534;5.292;2022-10-13T03:15:23;12.90;99.90
28632;DHT22;15818;45.534;5.292;2022-10-13T03:17:49;12.90;99.90
28632;DHT22;15818;45.534;5.292;2022-10-13T03:20:15;12.90;99.90
28632;DHT22;15818;45.534;5.292;2022-10-13T03:22:41;12.90;99.90
28632;DHT22;15818;45.534;5.292;2022-10-13T03:25:06;12.80;99.90
28632;DHT22;15818;45.534;5.292;2022-10-13T03:27:32;12.80;99.90
28632;DHT22;15818;45.534;5.292;2022-10-13T03:29:58;13.00;99.90
28632;DHT22;15818;45.534;5.292;2022-10-13T03:32:24;12.90;99.90
28632;DHT22;15818;45.534;5.292;2022-10-13T03:34:49;12.80;99.90
28632;DHT22;15818;45.534;5.292;2022-10-13T03:37:17;12.60;99.90
28632;DHT22;15818;45.534;5.292;2022-10-13T03:39:42;12.30;99.90
28632;DHT22;15818;45.534;5.292;2022-10-13T03:42:08;12.30;99.90
28632;DHT22;15818;45.534;5.292;2022-10-13T03:44:34;12.40;99.90
28632;DHT22;15818;45.534;5.292;2022-10-13T03:47:00;12.30;99.90
28632;DHT22;15818;45.534;5.292;2022-10-13T03:49:25;12.30;99.90
28632;DHT22;15818;45.534;5.292;2022-10-13T03:51:51;12.60;99.90
28632;DHT22;15818;45.534;5.292;2022-10-13T03:54:17;12.70;99.90
28632;DHT22;15818;45.534;5.292;2022-10-13T03:56:43;12.80;99.90
28632;DHT22;15818;45.534;5.292;2022-10-13T03:59:11;12.90;99.90
28632;DHT22;15818;45.534;5.292;2022-10-13T04:01:37;12.90;99.90
28632;DHT22;15818;45.534;5.292;2022-10-13T04:04:03;12.90;99.90
28632;DHT22;15818;45.534;5.292;2022-10-13T04:06:30;12.90;99.90
28632;DHT22;15818;45.534;5.292;2022-10-13T04:08:56;12.90;99.90
28632;DHT22;15818;45.534;5.292;2022-10-13T04:11:22;12.80;99.90
28632;DHT22;15818;45.534;5.292;2022-10-13T04:13:48;12.90;99.90
28632;DHT22;15818;45.534;5.292;2022-10-13T04:16:17;12.80;99.90
28632;DHT22;15818;45.534;5.292;2022-10-13T04:18:44;12.70;99.90
28632;DHT22;15818;45.534;5.292;2022-10-13T04:21:13;12.70;99.90
28632;DHT22;15818;45.534;5.292;2022-10-13T04:23:39;12.60;99.90
28632;DHT22;15818;45.534;5.292;2022-10-13T04:26:05;12.50;99.90
28632;DHT22;15818;45.534;5.292;2022-10-13T04:28:31;12.40;99.90
28632;DHT22;15818;45.534;5.292;2022-10-13T04:31:02;12.30;99.90
28632;DHT22;15818;45.534;5.292;2022-10-13T04:33:28;12.30;99.90
28632;DHT22;15818;45.534;5.292;2022-10-13T04:35:54;12.30;99.90
28632;DHT22;15818;45.534;5.292;2022-10-13T04:38:20;12.40;99.90
28632;DHT22;15818;45.534;5.292;2022-10-13T04:40:45;12.40;99.90
28632;DHT22;15818;45.534;5.292;2022-10-13T04:43:11;12.50;99.90
28632;DHT22;15818;45.534;5.292;2022-10-13T04:45:37;12.60;99.90
28632;DHT22;15818;45.534;5.292;2022-10-13T04:48:02;12.60;99.90
28632;DHT22;15818;45.534;5.292;2022-10-13T04:50:28;12.60;99.90
28632;DHT22;15818;45.534;5.292;2022-10-13T04:52:54;12.40;99.90
28632;DHT22;15818;45.534;5.292;2022-10-13T04:55:19;12.40;99.90
28632;DHT22;15818;45.534;5.292;2022-10-13T04:57:45;12.40;99.90
28632;DHT22;15818;45.534;5.292;2022-10-13T05:00:11;12.50;99.90
28632;DHT22;15818;45.534;5.292;2022-10-13T05:02:37;12.60;99.90
28632;DHT22;15818;45.534;5.292;2022-10-13T05:05:02;12.60;99.90
28632;DHT22;15818;45.534;5.292;2022-10-13T05:07:30;12.60;99.90
28632;DHT22;15818;45.534;5.292;2022-10-13T05:09:56;12.40;99.90
28632;DHT22;15818;45.534;5.292;2022-10-13T05:12:21;12.40;99.90
28632;DHT22;15818;45.534;5.292;2022-10-13T05:14:47;12.20;99.90
28632;DHT22;15818;45.534;5.292;2022-10-13T05:17:13;12.20;99.90
28632;DHT22;15818;45.534;5.292;2022-10-13T05:19:38;12.10;99.90
28632;DHT22;15818;45.534;5.292;2022-10-13T05:22:04;12.00;99.90
28632;DHT22;15818;45.534;5.292;2022-10-13T05:24:30;12.10;99.90
28632;DHT22;15818;45.534;5.292;2022-10-13T05:27:06;12.10;99.90
28632;DHT22;15818;45.534;5.292;2022-10-13T05:29:31;12.10;99.90
28632;DHT22;15818;45.534;5.292;2022-10-13T05:31:57;12.10;99.90
28632;DHT22;15818;45.534;5.292;2022-10-13T05:34:23;12.20;99.90
28632;DHT22;15818;45.534;5.292;2022-10-13T05:36:48;12.30;99.90
28632;DHT22;15818;45.534;5.292;2022-10-13T05:39:14;12.30;99.90
28632;DHT22;15818;45.534;5.292;2022-10-13T05:41:39;12.30;99.90
28632;DHT22;15818;45.534;5.292;2022-10-13T05:44:07;12.30;99.90
28632;DHT22;15818;45.534;5.292;2022-10-13T05:46:33;12.50;99.90
28632;DHT22;15818;45.534;5.292;2022-10-13T05:48:59;12.70;99.90
28632;DHT22;15818;45.534;5.292;2022-10-13T05:54:04;12.80;99.90
28632;DHT22;15818;45.534;5.292;2022-10-13T05:56:36;12.90;99.90
28632;DHT22;15818;45.534;5.292;2022-10-13T05:59:05;12.90;99.90
28632;DHT22;15818;45.534;5.292;2022-10-13T06:01:35;12.90;99.90
28632;DHT22;15818;45.534;5.292;2022-10-13T06:04:07;12.90;99.90
28632;DHT22;15818;45.534;5.292;2022-10-13T06:06:34;12.90;99.90
28632;DHT22;15818;45.534;5.292;2022-10-13T06:08:59;12.90;99.90
28632;DHT22;15818;45.534;5.292;2022-10-13T06:11:25;13.00;99.90
28632;DHT22;15818;45.534;5.292;2022-10-13T06:13:51;13.00;99.90
28632;DHT22;15818;45.534;5.292;2022-10-13T06:16:17;13.10;99.90
28632;DHT22;15818;45.534;5.292;2022-10-13T06:18:42;13.10;99.90
28632;DHT22;15818;45.534;5.292;2022-10-13T06:21:08;13.00;99.90
28632;DHT22;15818;45.534;5.292;2022-10-13T06:23:34;13.00;99.90
28632;DHT22;15818;45.534;5.292;2022-10-13T06:25:59;13.00;99.90
28632;DHT22;15818;45.534;5.292;2022-10-13T06:28:26;12.90;99.90
28632;DHT22;15818;45.534;5.292;2022-10-13T06:30:51;12.90;99.90
28632;DHT22;15818;45.534;5.292;2022-10-13T06:33:22;12.90;99.90
28632;DHT22;15818;45.534;5.292;2022-10-13T06:35:49;12.90;99.90
28632;DHT22;15818;45.534;5.292;2022-10-13T06:38:15;13.00;99.90
28632;DHT22;15818;45.534;5.292;2022-10-13T06:40:42;13.10;99.90
28632;DHT22;15818;45.534;5.292;2022-10-13T06:43:08;13.10;99.90
28632;DHT22;15818;45.534;5.292;2022-10-13T06:45:34;13.20;99.90
28632;DHT22;15818;45.534;5.292;2022-10-13T06:47:59;13.30;99.90
28632;DHT22;15818;45.534;5.292;2022-10-13T06:50:25;13.30;99.90
28632;DHT22;15818;45.534;5.292;2022-10-13T06:52:51;13.30;99.90
28632;DHT22;15818;45.534;5.292;2022-10-13T06:55:16;13.30;99.90
28632;DHT22;15818;45.534;5.292;2022-10-13T06:57:42;13.30;99.90
28632;DHT22;15818;45.534;5.292;2022-10-13T07:00:08;13.30;99.90
28632;DHT22;15818;45.534;5.292;2022-10-13T07:02:34;13.40;99.90
28632;DHT22;15818;45.534;5.292;2022-10-13T07:05:00;13.40;99.90
28632;DHT22;15818;45.534;5.292;2022-10-13T07:07:26;13.40;99.90
28632;DHT22;15818;45.534;5.292;2022-10-13T07:09:51;13.40;99.90
28632;DHT22;15818;45.534;5.292;2022-10-13T07:12:17;13.40;99.90
28632;DHT22;15818;45.534;5.292;2022-10-13T07:14:43;13.50;99.90
28632;DHT22;15818;45.534;5.292;2022-10-13T07:17:08;13.50;99.90
28632;DHT22;15818;45.534;5.292;2022-10-13T07:19:34;13.60;99.90
28632;DHT22;15818;45.534;5.292;2022-10-13T07:21:59;13.70;99.90
28632;DHT22;15818;45.534;5.292;2022-10-13T07:24:41;13.80;99.90
28632;DHT22;15818;45.534;5.292;2022-10-13T07:27:06;13.80;99.90
28632;DHT22;15818;45.534;5.292;2022-10-13T07:29:32;13.70;99.90
28632;DHT22;15818;45.534;5.292;2022-10-13T07:31:58;13.70;99.90
28632;DHT22;15818;45.534;5.292;2022-10-13T07:34:23;13.70;99.90
28632;DHT22;15818;45.534;5.292;2022-10-13T07:36:49;13.80;99.90
28632;DHT22;15818;45.534;5.292;2022-10-13T07:39:15;13.80;99.90
28632;DHT22;15818;45.534;5.292;2022-10-13T07:41:40;13.80;99.90
28632;DHT22;15818;45.534;5.292;2022-10-13T07:44:07;14.00;99.90
28632;DHT22;15818;45.534;5.292;2022-10-13T07:46:33;14.10;99.90
28632;DHT22;15818;45.534;5.292;2022-10-13T07:48:58;14.20;99.90
28632;DHT22;15818;45.534;5.292;2022-10-13T07:51:24;14.30;99.90
28632;DHT22;15818;45.534;5.292;2022-10-13T07:53:50;14.40;99.90
28632;DHT22;15818;45.534;5.292;2022-10-13T07:56:16;14.40;99.90
28632;DHT22;15818;45.534;5.292;2022-10-13T07:58:43;14.30;99.90
28632;DHT22;15818;45.534;5.292;2022-10-13T08:01:10;14.40;99.90
28632;DHT22;15818;45.534;5.292;2022-10-13T08:03:36;14.40;99.90
28632;DHT22;15818;45.534;5.292;2022-10-13T08:06:03;14.50;99.90
28632;DHT22;15818;45.534;5.292;2022-10-13T08:08:29;14.50;99.90
28632;DHT22;15818;45.534;5.292;2022-10-13T08:10:55;14.50;99.90
28632;DHT22;15818;45.534;5.292;2022-10-13T08:13:25;14.60;99.90
28632;DHT22;15818;45.534;5.292;2022-10-13T08:15:50;14.70;99.90
28632;DHT22;15818;45.534;5.292;2022-10-13T08:18:16;14.80;99.90
28632;DHT22;15818;45.534;5.292;2022-10-13T08:20:42;15.00;99.90
28632;DHT22;15818;45.534;5.292;2022-10-13T08:23:08;15.20;99.90
28632;DHT22;15818;45.534;5.292;2022-10-13T08:25:42;15.40;99.90
28632;DHT22;15818;45.534;5.292;2022-10-13T08:28:20;15.70;99.90
28632;DHT22;15818;45.534;5.292;2022-10-13T08:30:46;16.00;99.90
28632;DHT22;15818;45.534;5.292;2022-10-13T08:33:12;16.10;99.90
28632;DHT22;15818;45.534;5.292;2022-10-13T08:35:38;16.30;99.90
28632;DHT22;15818;45.534;5.292;2022-10-13T08:38:03;16.30;99.90
28632;DHT22;15818;45.534;5.292;2022-10-13T08:40:29;16.60;99.90
28632;DHT22;15818;45.534;5.292;2022-10-13T08:42:55;16.70;99.90
28632;DHT22;15818;45.534;5.292;2022-10-13T08:45:25;16.70;99.90
28632;DHT22;15818;45.534;5.292;2022-10-13T08:47:52;17.00;99.90
28632;DHT22;15818;45.534;5.292;2022-10-13T08:50:25;17.20;99.90
28632;DHT22;15818;45.534;5.292;2022-10-13T08:53:01;17.00;99.90
28632;DHT22;15818;45.534;5.292;2022-10-13T08:57:56;16.50;99.90
28632;DHT22;15818;45.534;5.292;2022-10-13T09:00:22;16.50;99.90
28632;DHT22;15818;45.534;5.292;2022-10-13T09:02:48;16.60;99.90
28632;DHT22;15818;45.534;5.292;2022-10-13T09:05:40;16.60;99.90
28632;DHT22;15818;45.534;5.292;2022-10-13T09:08:15;16.60;99.90
28632;DHT22;15818;45.534;5.292;2022-10-13T09:10:48;16.50;99.90
28632;DHT22;15818;45.534;5.292;2022-10-13T09:13:14;16.50;99.90
28632;DHT22;15818;45.534;5.292;2022-10-13T09:15:44;16.50;99.90
28632;DHT22;15818;45.534;5.292;2022-10-13T09:18:12;16.50;99.90
28632;DHT22;15818;45.534;5.292;2022-10-13T09:20:39;16.50;99.90
28632;DHT22;15818;45.534;5.292;2022-10-13T09:23:19;16.50;99.90
28632;DHT22;15818;45.534;5.292;2022-10-13T09:25:47;16.60;99.90
28632;DHT22;15818;45.534;5.292;2022-10-13T09:28:27;16.80;99.90
28632;DHT22;15818;45.534;5.292;2022-10-13T09:33:37;17.30;99.90
28632;DHT22;15818;45.534;5.292;2022-10-13T09:38:29;17.00;99.90
28632;DHT22;15818;45.534;5.292;2022-10-13T09:41:16;17.10;99.90
28632;DHT22;15818;45.534;5.292;2022-10-13T09:49:31;17.70;99.90
28632;DHT22;15818;45.534;5.292;2022-10-13T09:52:05;17.70;99.90
28632;DHT22;15818;45.534;5.292;2022-10-13T10:03:04;17.90;99.90
28632;DHT22;15818;45.534;5.292;2022-10-13T10:05:40;18.20;99.90
28632;DHT22;15818;45.534;5.292;2022-10-13T10:11:18;19.20;99.90
28632;DHT22;15818;45.534;5.292;2022-10-13T10:13:46;20.80;99.90
28632;DHT22;15818;45.534;5.292;2022-10-13T10:19:09;19.00;99.90
28632;DHT22;15818;45.534;5.292;2022-10-13T10:21:48;18.40;99.90
28632;DHT22;15818;45.534;5.292;2022-10-13T10:24:28;18.30;99.90
28632;DHT22;15818;45.534;5.292;2022-10-13T10:26:59;18.10;99.90
28632;DHT22;15818;45.534;5.292;2022-10-13T10:37:56;17.80;99.90
28632;DHT22;15818;45.534;5.292;2022-10-13T10:40:47;18.40;99.90
28632;DHT22;15818;45.534;5.292;2022-10-13T10:43:46;20.30;99.90
28632;DHT22;15818;45.534;5.292;2022-10-13T10:46:27;22.50;99.90
28632;DHT22;15818;45.534;5.292;2022-10-13T10:49:03;25.40;99.90
28632;DHT22;15818;45.534;5.292;2022-10-13T10:51:37;26.60;99.90
28632;DHT22;15818;45.534;5.292;2022-10-13T10:56:41;26.80;99.90
28632;DHT22;15818;45.534;5.292;2022-10-13T10:59:34;26.80;99.90
28632;DHT22;15818;45.534;5.292;2022-10-13T11:07:10;22.80;99.90
28632;DHT22;15818;45.534;5.292;2022-10-13T11:17:32;20.90;99.90
28632;DHT22;15818;45.534;5.292;2022-10-13T11:19:58;20.90;99.90
28632;DHT22;15818;45.534;5.292;2022-10-13T11:22:26;20.80;99.90
28632;DHT22;15818;45.534;5.292;2022-10-13T11:24:54;20.60;99.90
28632;DHT22;15818;45.534;5.292;2022-10-13T11:29:58;20.70;99.90
28632;DHT22;15818;45.534;5.292;2022-10-13T11:45:55;20.50;99.90
28632;DHT22;15818;45.534;5.292;2022-10-13T11:48:57;20.20;99.90
28632;DHT22;15818;45.534;5.292;2022-10-13T11:57:23;20.00;99.90
28632;DHT22;15818;45.534;5.292;2022-10-13T11:59:50;20.00;99.90
28632;DHT22;15818;45.534;5.292;2022-10-13T12:02:23;20.10;99.90
28632;DHT22;15818;45.534;5.292;2022-10-13T12:07:45;19.90;99.90
28632;DHT22;15818;45.534;5.292;2022-10-13T12:10:38;19.70;99.90
28632;DHT22;15818;45.534;5.292;2022-10-13T12:13:04;19.60;99.90
28632;DHT22;15818;45.534;5.292;2022-10-13T12:15:42;19.50;99.90
28632;DHT22;15818;45.534;5.292;2022-10-13T12:18:22;19.40;99.90
28632;DHT22;15818;45.534;5.292;2022-10-13T12:20:59;19.50;99.90
28632;DHT22;15818;45.534;5.292;2022-10-13T12:23:25;19.50;99.90
28632;DHT22;15818;45.534;5.292;2022-10-13T12:25:52;19.30;99.90
28632;DHT22;15818;45.534;5.292;2022-10-13T12:28:21;19.50;99.90
28632;DHT22;15818;45.534;5.292;2022-10-13T12:30:58;19.60;99.90
28632;DHT22;15818;45.534;5.292;2022-10-13T12:33:34;19.80;99.90
28632;DHT22;15818;45.534;5.292;2022-10-13T12:36:21;19.90;99.90
28632;DHT22;15818;45.534;5.292;2022-10-13T12:38:52;19.90;99.90
28632;DHT22;15818;45.534;5.292;2022-10-13T12:41:42;19.70;99.90
28632;DHT22;15818;45.534;5.292;2022-10-13T12:44:20;19.40;99.90
28632;DHT22;15818;45.534;5.292;2022-10-13T12:46:51;19.50;99.90
28632;DHT22;15818;45.534;5.292;2022-10-13T12:49:32;19.70;99.90
28632;DHT22;15818;45.534;5.292;2022-10-13T12:52:11;19.70;99.90
28632;DHT22;15818;45.534;5.292;2022-10-13T12:54:52;19.70;99.90
28632;DHT22;15818;45.534;5.292;2022-10-13T12:57:25;19.80;99.90
28632;DHT22;15818;45.534;5.292;2022-10-13T13:00:00;19.90;99.90
28632;DHT22;15818;45.534;5.292;2022-10-13T13:02:31;19.80;99.90
28632;DHT22;15818;45.534;5.292;2022-10-13T13:04:57;19.80;99.90
28632;DHT22;15818;45.534;5.292;2022-10-13T13:07:32;19.90;99.90
28632;DHT22;15818;45.534;5.292;2022-10-13T13:12:34;19.80;99.90
28632;DHT22;15818;45.534;5.292;2022-10-13T13:17:48;19.90;99.90
28632;DHT22;15818;45.534;5.292;2022-10-13T13:20:27;19.90;99.90
28632;DHT22;15818;45.534;5.292;2022-10-13T13:22:54;19.70;99.90
28632;DHT22;15818;45.534;5.292;2022-10-13T13:25:20;19.70;99.90
28632;DHT22;15818;45.534;5.292;2022-10-13T13:27:45;19.60;99.90
28632;DHT22;15818;45.534;5.292;2022-10-13T13:30:13;19.60;99.90
28632;DHT22;15818;45.534;5.292;2022-10-13T13:32:39;19.60;99.90
28632;DHT22;15818;45.534;5.292;2022-10-13T13:35:05;19.60;99.90
28632;DHT22;15818;45.534;5.292;2022-10-13T13:37:50;19.60;99.90
28632;DHT22;15818;45.534;5.292;2022-10-13T13:40:25;19.60;99.90
28632;DHT22;15818;45.534;5.292;2022-10-13T13:42:52;19.40;99.90
28632;DHT22;15818;45.534;5.292;2022-10-13T13:45:20;19.40;99.90
28632;DHT22;15818;45.534;5.292;2022-10-13T13:47:47;19.40;99.90
28632;DHT22;15818;45.534;5.292;2022-10-13T13:50:21;19.30;99.90
28632;DHT22;15818;45.534;5.292;2022-10-13T13:52:47;19.30;99.90
28632;DHT22;15818;45.534;5.292;2022-10-13T13:55:13;19.30;99.90
28632;DHT22;15818;45.534;5.292;2022-10-13T13:57:39;19.30;99.90
28632;DHT22;15818;45.534;5.292;2022-10-13T14:00:05;19.20;99.90
28632;DHT22;15818;45.534;5.292;2022-10-13T14:02:31;19.00;99.90
28632;DHT22;15818;45.534;5.292;2022-10-13T14:04:58;19.00;99.90
28632;DHT22;15818;45.534;5.292;2022-10-13T14:07:24;18.80;99.90
28632;DHT22;15818;45.534;5.292;2022-10-13T14:09:50;18.80;99.90
28632;DHT22;15818;45.534;5.292;2022-10-13T14:12:15;18.70;99.90
28632;DHT22;15818;45.534;5.292;2022-10-13T14:14:41;18.70;99.90
28632;DHT22;15818;45.534;5.292;2022-10-13T14:17:07;18.80;99.90
28632;DHT22;15818;45.534;5.292;2022-10-13T14:19:32;18.70;99.90
28632;DHT22;15818;45.534;5.292;2022-10-13T14:21:58;18.80;99.90
28632;DHT22;15818;45.534;5.292;2022-10-13T14:24:26;18.80;99.90
28632;DHT22;15818;45.534;5.292;2022-10-13T14:26:51;18.90;99.90
28632;DHT22;15818;45.534;5.292;2022-10-13T14:29:17;18.80;99.90
28632;DHT22;15818;45.534;5.292;2022-10-13T14:31:43;18.80;99.90
28632;DHT22;15818;45.534;5.292;2022-10-13T14:34:09;18.70;99.90
28632;DHT22;15818;45.534;5.292;2022-10-13T14:36:34;18.70;99.90
28632;DHT22;15818;45.534;5.292;2022-10-13T14:39:00;18.70;99.90
28632;DHT22;15818;45.534;5.292;2022-10-13T14:41:26;18.70;99.90
28632;DHT22;15818;45.534;5.292;2022-10-13T14:43:53;18.80;99.90
28632;DHT22;15818;45.534;5.292;2022-10-13T14:46:19;18.70;99.90
28632;DHT22;15818;45.534;5.292;2022-10-13T14:48:44;18.70;99.90
28632;DHT22;15818;45.534;5.292;2022-10-13T14:51:10;18.60;99.90
28632;DHT22;15818;45.534;5.292;2022-10-13T14:53:37;18.60;99.90
28632;DHT22;15818;45.534;5.292;2022-10-13T14:56:20;18.60;99.90
28632;DHT22;15818;45.534;5.292;2022-10-13T14:58:47;18.50;99.90
28632;DHT22;15818;45.534;5.292;2022-10-13T15:01:14;18.60;99.90
28632;DHT22;15818;45.534;5.292;2022-10-13T15:03:40;18.50;99.90
28632;DHT22;15818;45.534;5.292;2022-10-13T15:06:06;18.60;99.90
28632;DHT22;15818;45.534;5.292;2022-10-13T15:08:31;18.50;99.90
28632;DHT22;15818;45.534;5.292;2022-10-13T15:11:01;18.40;99.90
28632;DHT22;15818;45.534;5.292;2022-10-13T15:13:28;18.40;99.90
28632;DHT22;15818;45.534;5.292;2022-10-13T15:15:55;18.30;99.90
28632;DHT22;15818;45.534;5.292;2022-10-13T15:18:21;18.30;99.90
28632;DHT22;15818;45.534;5.292;2022-10-13T15:20:48;18.20;99.90
28632;DHT22;15818;45.534;5.292;2022-10-13T15:23:15;18.20;99.90
28632;DHT22;15818;45.534;5.292;2022-10-13T15:28:16;18.20;99.90
28632;DHT22;15818;45.534;5.292;2022-10-13T15:30:42;18.10;99.90
28632;DHT22;15818;45.534;5.292;2022-10-13T15:33:08;18.20;99.90
28632;DHT22;15818;45.534;5.292;2022-10-13T15:35:34;18.10;99.90
28632;DHT22;15818;45.534;5.292;2022-10-13T15:37:59;18.20;99.90
28632;DHT22;15818;45.534;5.292;2022-10-13T15:40:25;18.20;99.90
28632;DHT22;15818;45.534;5.292;2022-10-13T15:42:52;18.00;99.90
28632;DHT22;15818;45.534;5.292;2022-10-13T15:45:18;17.90;99.90
28632;DHT22;15818;45.534;5.292;2022-10-13T15:47:43;17.90;99.90
28632;DHT22;15818;45.534;5.292;2022-10-13T15:50:09;17.80;99.90
28632;DHT22;15818;45.534;5.292;2022-10-13T15:52:39;17.70;99.90
28632;DHT22;15818;45.534;5.292;2022-10-13T15:55:06;17.60;99.90
28632;DHT22;15818;45.534;5.292;2022-10-13T15:57:32;17.60;99.90
28632;DHT22;15818;45.534;5.292;2022-10-13T15:59:58;17.60;99.90
28632;DHT22;15818;45.534;5.292;2022-10-13T16:02:23;17.60;99.90
28632;DHT22;15818;45.534;5.292;2022-10-13T16:04:50;17.60;99.90
28632;DHT22;15818;45.534;5.292;2022-10-13T16:07:15;17.50;99.90
28632;DHT22;15818;45.534;5.292;2022-10-13T16:09:43;17.40;99.90
28632;DHT22;15818;45.534;5.292;2022-10-13T16:12:09;17.30;99.90
28632;DHT22;15818;45.534;5.292;2022-10-13T16:14:35;17.20;99.90
28632;DHT22;15818;45.534;5.292;2022-10-13T16:17:01;17.20;99.90
28632;DHT22;15818;45.534;5.292;2022-10-13T16:19:27;17.20;99.90
28632;DHT22;15818;45.534;5.292;2022-10-13T16:21:52;17.20;99.90
28632;DHT22;15818;45.534;5.292;2022-10-13T16:24:18;17.10;99.90
28632;DHT22;15818;45.534;5.292;2022-10-13T16:26:44;17.00;99.90
28632;DHT22;15818;45.534;5.292;2022-10-13T16:29:09;17.00;99.90
28632;DHT22;15818;45.534;5.292;2022-10-13T16:31:35;17.00;99.90
28632;DHT22;15818;45.534;5.292;2022-10-13T16:34:01;17.00;99.90
28632;DHT22;15818;45.534;5.292;2022-10-13T16:36:26;17.00;99.90
28632;DHT22;15818;45.534;5.292;2022-10-13T16:38:53;17.00;99.90
28632;DHT22;15818;45.534;5.292;2022-10-13T16:41:22;17.00;99.90
28632;DHT22;15818;45.534;5.292;2022-10-13T16:43:48;16.90;99.90
28632;DHT22;15818;45.534;5.292;2022-10-13T16:46:16;16.80;99.90
28632;DHT22;15818;45.534;5.292;2022-10-13T16:48:43;16.80;99.90
28632;DHT22;15818;45.534;5.292;2022-10-13T16:51:12;16.70;99.90
28632;DHT22;15818;45.534;5.292;2022-10-13T16:53:39;16.70;99.90
28632;DHT22;15818;45.534;5.292;2022-10-13T16:56:06;16.70;99.90
28632;DHT22;15818;45.534;5.292;2022-10-13T16:58:32;16.70;99.90
28632;DHT22;15818;45.534;5.292;2022-10-13T17:01:06;16.70;99.90
28632;DHT22;15818;45.534;5.292;2022-10-13T17:03:37;16.70;99.90
28632;DHT22;15818;45.534;5.292;2022-10-13T17:06:03;16.70;99.90
28632;DHT22;15818;45.534;5.292;2022-10-13T17:08:29;16.60;99.90
28632;DHT22;15818;45.534;5.292;2022-10-13T17:10:55;16.60;99.90
28632;DHT22;15818;45.534;5.292;2022-10-13T17:13:21;16.60;99.90
28632;DHT22;15818;45.534;5.292;2022-10-13T17:15:50;16.50;99.90
28632;DHT22;15818;45.534;5.292;2022-10-13T17:18:16;16.50;99.90
28632;DHT22;15818;45.534;5.292;2022-10-13T17:20:53;16.50;99.90
28632;DHT22;15818;45.534;5.292;2022-10-13T17:23:20;16.50;99.90
28632;DHT22;15818;45.534;5.292;2022-10-13T17:25:45;16.40;99.90
28632;DHT22;15818;45.534;5.292;2022-10-13T17:28:11;16.40;99.90
28632;DHT22;15818;45.534;5.292;2022-10-13T17:30:37;16.40;99.90